sensor_id;sensor_type;location;lat;lon;timestamp;pressure;altitude;pressure_sealevel;temperature;humidity
61761;BME280;47664;51.660;-0.100;2022-10-19T00:02:08;102011.76;;;11.55;62.70
61761;BME280;47664;51.660;-0.100;2022-10-19T00:04:40;102006.90;;;11.97;62.28
61761;BME280;47664;51.660;-0.100;2022-10-19T00:07:12;102011.82;;;11.89;61.85
61761;BME280;47664;51.660;-0.100;2022-10-19T00:09:47;102011.30;;;11.97;61.56
61761;BME280;47664;51.660;-0.100;2022-10-19T00:12:19;102001.68;;;12.03;61.23
61761;BME280;47664;51.660;-0.100;2022-10-19T00:14:51;101994.81;;;12.02;61.06
61761;BME280;47664;51.660;-0.100;2022-10-19T00:17:23;101992.99;;;12.03;61.16
61761;BME280;47664;51.660;-0.100;2022-10-19T00:19:56;101997.53;;;11.56;62.04
61761;BME280;47664;51.660;-0.100;2022-10-19T00:22:28;102002.08;;;11.64;62.17
61761;BME280;47664;51.660;-0.100;2022-10-19T00:25:01;102000.60;;;11.71;61.87
61761;BME280;47664;51.660;-0.100;2022-10-19T00:27:33;101998.64;;;12.12;61.01
61761;BME280;47664;51.660;-0.100;2022-10-19T00:30:06;101994.88;;;11.58;62.01
61761;BME280;47664;51.660;-0.100;2022-10-19T00:32:38;101994.19;;;12.05;61.84
61761;BME280;47664;51.660;-0.100;2022-10-19T00:35:11;101991.09;;;11.88;61.61
61761;BME280;47664;51.660;-0.100;2022-10-19T00:37:43;101991.47;;;11.81;61.71
61761;BME280;47664;51.660;-0.100;2022-10-19T00:40:16;101984.85;;;11.85;62.76
61761;BME280;47664;51.660;-0.100;2022-10-19T00:42:52;101973.38;;;11.27;63.46
61761;BME280;47664;51.660;-0.100;2022-10-19T00:45:24;101968.06;;;11.34;63.41
61761;BME280;47664;51.660;-0.100;2022-10-19T00:47:56;101965.74;;;11.23;64.43
61761;BME280;47664;51.660;-0.100;2022-10-19T00:50:29;101961.32;;;11.53;63.99
61761;BME280;47664;51.660;-0.100;2022-10-19T00:53:01;101955.33;;;11.74;63.26
61761;BME280;47664;51.660;-0.100;2022-10-19T00:55:33;101953.02;;;11.16;63.44
61761;BME280;47664;51.660;-0.100;2022-10-19T00:58:06;101953.72;;;11.37;64.16
61761;BME280;47664;51.660;-0.100;2022-10-19T01:00:40;101960.48;;;11.71;63.21
61761;BME280;47664;51.660;-0.100;2022-10-19T01:03:13;101957.73;;;11.53;63.86
61761;BME280;47664;51.660;-0.100;2022-10-19T01:05:46;101957.44;;;11.50;63.97
61761;BME280;47664;51.660;-0.100;2022-10-19T01:08:19;101961.06;;;11.44;64.11
61761;BME280;47664;51.660;-0.100;2022-10-19T01:10:51;101961.16;;;11.07;63.81
61761;BME280;47664;51.660;-0.100;2022-10-19T01:13:31;101961.90;;;11.03;63.84
61761;BME280;47664;51.660;-0.100;2022-10-19T01:16:13;101957.05;;;11.56;63.75
61761;BME280;47664;51.660;-0.100;2022-10-19T01:18:50;101954.68;;;11.53;63.94
61761;BME280;47664;51.660;-0.100;2022-10-19T01:21:26;101945.76;;;11.18;64.67
61761;BME280;47664;51.660;-0.100;2022-10-19T01:24:42;101943.63;;;11.19;64.91
61761;BME280;47664;51.660;-0.100;2022-10-19T01:27:34;101940.37;;;11.36;64.33
61761;BME280;47664;51.660;-0.100;2022-10-19T01:30:12;101933.98;;;11.32;64.55
61761;BME280;47664;51.660;-0.100;2022-10-19T01:32:52;101929.64;;;10.92;65.55
61761;BME280;47664;51.660;-0.100;2022-10-19T01:35:26;101930.94;;;10.82;65.96
61761;BME280;47664;51.660;-0.100;2022-10-19T01:38:04;101928.01;;;10.81;66.12
61761;BME280;47664;51.660;-0.100;2022-10-19T01:40:40;101931.35;;;11.16;65.19
61761;BME280;47664;51.660;-0.100;2022-10-19T01:43:12;101935.14;;;11.40;64.49
61761;BME280;47664;51.660;-0.100;2022-10-19T01:45:53;101933.92;;;10.92;65.11
61761;BME280;47664;51.660;-0.100;2022-10-19T01:48:32;101927.88;;;11.43;64.39
61761;BME280;47664;51.660;-0.100;2022-10-19T01:51:09;101928.61;;;11.33;64.62
61761;BME280;47664;51.660;-0.100;2022-10-19T01:53:43;101932.25;;;11.33;65.19
61761;BME280;47664;51.660;-0.100;2022-10-19T01:56:19;101930.16;;;11.20;65.09
61761;BME280;47664;51.660;-0.100;2022-10-19T01:58:53;101931.52;;;11.30;63.71
61761;BME280;47664;51.660;-0.100;2022-10-19T02:01:29;101934.09;;;11.41;63.94
61761;BME280;47664;51.660;-0.100;2022-10-19T02:04:02;101935.46;;;11.79;63.67
61761;BME280;47664;51.660;-0.100;2022-10-19T02:06:35;101933.47;;;11.58;63.66
61761;BME280;47664;51.660;-0.100;2022-10-19T02:09:07;101932.80;;;11.53;63.80
61761;BME280;47664;51.660;-0.100;2022-10-19T02:11:40;101923.41;;;11.39;64.49
61761;BME280;47664;51.660;-0.100;2022-10-19T02:14:16;101917.09;;;11.39;64.57
61761;BME280;47664;51.660;-0.100;2022-10-19T02:16:53;101915.48;;;10.82;64.69
61761;BME280;47664;51.660;-0.100;2022-10-19T02:19:28;101918.17;;;11.28;64.89
61761;BME280;47664;51.660;-0.100;2022-10-19T02:22:00;101917.63;;;11.27;65.08
61761;BME280;47664;51.660;-0.100;2022-10-19T02:24:33;101913.30;;;11.49;64.56
61761;BME280;47664;51.660;-0.100;2022-10-19T02:27:06;101906.15;;;11.72;63.75
61761;BME280;47664;51.660;-0.100;2022-10-19T02:29:40;101897.96;;;11.59;64.65
61761;BME280;47664;51.660;-0.100;2022-10-19T02:32:12;101882.88;;;11.32;64.98
61761;BME280;47664;51.660;-0.100;2022-10-19T02:34:45;101878.04;;;10.82;66.07
61761;BME280;47664;51.660;-0.100;2022-10-19T02:37:18;101870.86;;;10.98;65.82
61761;BME280;47664;51.660;-0.100;2022-10-19T02:39:50;101873.49;;;11.10;66.14
61761;BME280;47664;51.660;-0.100;2022-10-19T02:42:21;101868.95;;;10.68;67.53
61761;BME280;47664;51.660;-0.100;2022-10-19T02:44:56;101869.40;;;10.66;67.37
61761;BME280;47664;51.660;-0.100;2022-10-19T02:47:32;101868.67;;;10.78;68.11
61761;BME280;47664;51.660;-0.100;2022-10-19T02:50:03;101860.81;;;10.44;68.85
61761;BME280;47664;51.660;-0.100;2022-10-19T02:52:36;101857.71;;;10.35;70.03
61761;BME280;47664;51.660;-0.100;2022-10-19T02:55:09;101856.33;;;10.47;70.12
61761;BME280;47664;51.660;-0.100;2022-10-19T02:57:42;101850.26;;;10.44;69.79
61761;BME280;47664;51.660;-0.100;2022-10-19T03:00:14;101841.26;;;10.31;70.04
61761;BME280;47664;51.660;-0.100;2022-10-19T03:02:46;101836.32;;;10.24;69.81
61761;BME280;47664;51.660;-0.100;2022-10-19T03:05:18;101829.43;;;10.48;69.81
61761;BME280;47664;51.660;-0.100;2022-10-19T03:07:50;101828.94;;;10.20;69.96
61761;BME280;47664;51.660;-0.100;2022-10-19T03:10:22;101820.56;;;10.35;70.24
61761;BME280;47664;51.660;-0.100;2022-10-19T03:12:55;101814.81;;;10.44;69.95
61761;BME280;47664;51.660;-0.100;2022-10-19T03:15:27;101812.63;;;10.54;70.47
61761;BME280;47664;51.660;-0.100;2022-10-19T03:18:00;101812.89;;;10.39;70.32
61761;BME280;47664;51.660;-0.100;2022-10-19T03:20:32;101813.31;;;10.62;69.66
61761;BME280;47664;51.660;-0.100;2022-10-19T03:23:04;101809.45;;;10.46;70.24
61761;BME280;47664;51.660;-0.100;2022-10-19T03:25:36;101798.96;;;10.57;69.77
61761;BME280;47664;51.660;-0.100;2022-10-19T03:28:08;101794.77;;;10.34;69.06
61761;BME280;47664;51.660;-0.100;2022-10-19T03:30:40;101793.51;;;11.05;68.28
61761;BME280;47664;51.660;-0.100;2022-10-19T03:33:12;101793.09;;;10.33;70.52
61761;BME280;47664;51.660;-0.100;2022-10-19T03:35:45;101795.06;;;10.61;70.32
61761;BME280;47664;51.660;-0.100;2022-10-19T03:38:16;101792.74;;;10.68;69.65
61761;BME280;47664;51.660;-0.100;2022-10-19T03:40:48;101794.86;;;10.41;68.92
61761;BME280;47664;51.660;-0.100;2022-10-19T03:43:20;101791.57;;;10.84;68.45
61761;BME280;47664;51.660;-0.100;2022-10-19T03:45:52;101797.05;;;10.70;68.69
61761;BME280;47664;51.660;-0.100;2022-10-19T03:48:25;101801.95;;;10.65;69.12
61761;BME280;47664;51.660;-0.100;2022-10-19T03:50:57;101800.66;;;10.96;68.44
61761;BME280;47664;51.660;-0.100;2022-10-19T03:53:30;101802.24;;;10.92;68.68
61761;BME280;47664;51.660;-0.100;2022-10-19T03:56:02;101807.10;;;10.90;68.37
61761;BME280;47664;51.660;-0.100;2022-10-19T03:58:36;101801.19;;;11.00;68.89
61761;BME280;47664;51.660;-0.100;2022-10-19T04:01:12;101793.59;;;10.95;69.10
61761;BME280;47664;51.660;-0.100;2022-10-19T04:03:45;101787.45;;;11.06;68.25
61761;BME280;47664;51.660;-0.100;2022-10-19T04:06:19;101781.32;;;11.08;67.97
61761;BME280;47664;51.660;-0.100;2022-10-19T04:08:53;101769.86;;;11.15;68.44
61761;BME280;47664;51.660;-0.100;2022-10-19T04:11:27;101767.31;;;10.62;70.04
61761;BME280;47664;51.660;-0.100;2022-10-19T04:14:01;101764.18;;;10.84;69.63
61761;BME280;47664;51.660;-0.100;2022-10-19T04:16:34;101763.53;;;10.65;69.35
61761;BME280;47664;51.660;-0.100;2022-10-19T04:19:07;101766.49;;;11.04;68.42
61761;BME280;47664;51.660;-0.100;2022-10-19T04:21:40;101766.33;;;11.16;68.78
61761;BME280;47664;51.660;-0.100;2022-10-19T04:24:13;101772.46;;;11.28;68.87
61761;BME280;47664;51.660;-0.100;2022-10-19T04:26:47;101765.46;;;10.89;68.90
61761;BME280;47664;51.660;-0.100;2022-10-19T04:29:22;101768.68;;;11.26;67.96
61761;BME280;47664;51.660;-0.100;2022-10-19T04:31:55;101769.68;;;10.69;68.78
61761;BME280;47664;51.660;-0.100;2022-10-19T04:34:27;101770.45;;;10.98;68.67
61761;BME280;47664;51.660;-0.100;2022-10-19T04:36:59;101771.64;;;10.93;68.18
61761;BME280;47664;51.660;-0.100;2022-10-19T04:39:31;101771.44;;;10.71;70.02
61761;BME280;47664;51.660;-0.100;2022-10-19T04:42:04;101766.83;;;10.99;69.34
61761;BME280;47664;51.660;-0.100;2022-10-19T04:44:36;101766.84;;;10.78;70.07
61761;BME280;47664;51.660;-0.100;2022-10-19T04:47:08;101768.45;;;10.76;70.03
61761;BME280;47664;51.660;-0.100;2022-10-19T04:49:40;101759.56;;;10.89;70.51
61761;BME280;47664;51.660;-0.100;2022-10-19T04:52:12;101756.89;;;10.96;69.83
61761;BME280;47664;51.660;-0.100;2022-10-19T04:54:44;101757.07;;;10.95;69.10
61761;BME280;47664;51.660;-0.100;2022-10-19T04:57:17;101756.18;;;11.07;68.71
61761;BME280;47664;51.660;-0.100;2022-10-19T04:59:50;101753.95;;;10.32;70.57
61761;BME280;47664;51.660;-0.100;2022-10-19T05:02:23;101754.11;;;10.73;70.61
61761;BME280;47664;51.660;-0.100;2022-10-19T05:04:55;101746.04;;;10.98;69.88
61761;BME280;47664;51.660;-0.100;2022-10-19T05:07:27;101743.67;;;10.63;70.70
61761;BME280;47664;51.660;-0.100;2022-10-19T05:09:59;101743.39;;;10.72;70.56
61761;BME280;47664;51.660;-0.100;2022-10-19T05:12:33;101741.67;;;10.30;71.79
61761;BME280;47664;51.660;-0.100;2022-10-19T05:15:05;101736.00;;;10.52;71.31
61761;BME280;47664;51.660;-0.100;2022-10-19T05:17:38;101734.90;;;10.55;71.24
61761;BME280;47664;51.660;-0.100;2022-10-19T05:20:11;101725.65;;;10.75;70.65
61761;BME280;47664;51.660;-0.100;2022-10-19T05:22:44;101732.01;;;10.60;71.13
61761;BME280;47664;51.660;-0.100;2022-10-19T05:25:16;101729.75;;;10.68;71.50
61761;BME280;47664;51.660;-0.100;2022-10-19T05:27:50;101726.02;;;10.64;70.19
61761;BME280;47664;51.660;-0.100;2022-10-19T05:30:22;101719.77;;;10.90;69.30
61761;BME280;47664;51.660;-0.100;2022-10-19T05:32:54;101725.12;;;10.83;70.23
61761;BME280;47664;51.660;-0.100;2022-10-19T05:35:26;101723.46;;;10.62;70.92
61761;BME280;47664;51.660;-0.100;2022-10-19T05:37:58;101722.18;;;11.02;69.88
61761;BME280;47664;51.660;-0.100;2022-10-19T05:40:30;101719.36;;;10.68;69.91
61761;BME280;47664;51.660;-0.100;2022-10-19T05:43:02;101710.61;;;11.32;68.94
61761;BME280;47664;51.660;-0.100;2022-10-19T05:45:34;101702.77;;;11.21;68.62
61761;BME280;47664;51.660;-0.100;2022-10-19T05:48:07;101699.61;;;11.37;68.82
61761;BME280;47664;51.660;-0.100;2022-10-19T05:50:40;101698.53;;;11.27;68.35
61761;BME280;47664;51.660;-0.100;2022-10-19T05:53:12;101693.18;;;11.24;68.29
61761;BME280;47664;51.660;-0.100;2022-10-19T05:55:44;101689.83;;;10.89;69.73
61761;BME280;47664;51.660;-0.100;2022-10-19T05:58:16;101681.15;;;10.85;69.92
61761;BME280;47664;51.660;-0.100;2022-10-19T06:00:50;101676.68;;;10.51;70.36
61761;BME280;47664;51.660;-0.100;2022-10-19T06:03:22;101672.85;;;10.80;70.19
61761;BME280;47664;51.660;-0.100;2022-10-19T06:05:55;101673.06;;;10.86;70.10
61761;BME280;47664;51.660;-0.100;2022-10-19T06:08:28;101674.41;;;10.43;71.27
61761;BME280;47664;51.660;-0.100;2022-10-19T06:11:04;101675.62;;;10.51;70.99
61761;BME280;47664;51.660;-0.100;2022-10-19T06:13:37;101676.00;;;11.02;69.95
61761;BME280;47664;51.660;-0.100;2022-10-19T06:16:11;101675.52;;;10.87;69.34
61761;BME280;47664;51.660;-0.100;2022-10-19T06:18:44;101684.24;;;10.93;70.49
61761;BME280;47664;51.660;-0.100;2022-10-19T06:21:18;101688.68;;;10.53;71.09
61761;BME280;47664;51.660;-0.100;2022-10-19T06:23:49;101685.55;;;10.70;70.64
61761;BME280;47664;51.660;-0.100;2022-10-19T06:26:23;101684.63;;;10.84;70.53
61761;BME280;47664;51.660;-0.100;2022-10-19T06:28:59;101684.88;;;11.12;69.79
61761;BME280;47664;51.660;-0.100;2022-10-19T06:31:33;101691.27;;;10.68;70.86
61761;BME280;47664;51.660;-0.100;2022-10-19T06:34:06;101694.65;;;10.82;70.77
61761;BME280;47664;51.660;-0.100;2022-10-19T06:36:37;101691.74;;;10.41;71.91
61761;BME280;47664;51.660;-0.100;2022-10-19T06:39:09;101690.61;;;10.89;71.59
61761;BME280;47664;51.660;-0.100;2022-10-19T06:41:41;101685.91;;;10.72;71.48
61761;BME280;47664;51.660;-0.100;2022-10-19T06:44:14;101690.38;;;10.88;70.96
61761;BME280;47664;51.660;-0.100;2022-10-19T06:46:46;101688.52;;;10.35;73.39
61761;BME280;47664;51.660;-0.100;2022-10-19T06:49:19;101684.89;;;10.43;72.79
61761;BME280;47664;51.660;-0.100;2022-10-19T06:51:51;101691.74;;;10.30;73.23
61761;BME280;47664;51.660;-0.100;2022-10-19T06:54:23;101687.66;;;10.66;74.02
61761;BME280;47664;51.660;-0.100;2022-10-19T06:56:55;101684.57;;;10.86;73.25
61761;BME280;47664;51.660;-0.100;2022-10-19T06:59:28;101683.08;;;10.50;74.37
61761;BME280;47664;51.660;-0.100;2022-10-19T07:01:59;101675.26;;;10.87;73.60
61761;BME280;47664;51.660;-0.100;2022-10-19T07:04:32;101665.87;;;10.88;72.37
61761;BME280;47664;51.660;-0.100;2022-10-19T07:07:04;101667.44;;;10.97;72.78
61761;BME280;47664;51.660;-0.100;2022-10-19T07:09:36;101669.44;;;10.48;73.55
61761;BME280;47664;51.660;-0.100;2022-10-19T07:12:08;101663.91;;;10.49;74.32
61761;BME280;47664;51.660;-0.100;2022-10-19T07:14:41;101662.40;;;10.97;73.15
61761;BME280;47664;51.660;-0.100;2022-10-19T07:17:15;101658.72;;;10.98;72.49
61761;BME280;47664;51.660;-0.100;2022-10-19T07:19:47;101663.97;;;10.41;74.86
61761;BME280;47664;51.660;-0.100;2022-10-19T07:22:19;101668.41;;;10.53;74.52
61761;BME280;47664;51.660;-0.100;2022-10-19T07:24:51;101660.47;;;10.83;73.98
61761;BME280;47664;51.660;-0.100;2022-10-19T07:27:23;101659.41;;;10.64;74.04
61761;BME280;47664;51.660;-0.100;2022-10-19T07:29:55;101641.18;;;11.27;72.25
61761;BME280;47664;51.660;-0.100;2022-10-19T07:32:28;101637.02;;;10.80;73.38
61761;BME280;47664;51.660;-0.100;2022-10-19T07:35:00;101639.97;;;10.58;74.78
61761;BME280;47664;51.660;-0.100;2022-10-19T07:37:32;101639.29;;;10.63;75.67
61761;BME280;47664;51.660;-0.100;2022-10-19T07:40:04;101647.76;;;10.72;74.77
61761;BME280;47664;51.660;-0.100;2022-10-19T07:42:37;101642.22;;;10.51;76.16
61761;BME280;47664;51.660;-0.100;2022-10-19T07:45:09;101637.35;;;10.50;76.02
61761;BME280;47664;51.660;-0.100;2022-10-19T07:47:41;101626.45;;;10.39;77.22
61761;BME280;47664;51.660;-0.100;2022-10-19T07:50:14;101613.84;;;10.84;74.87
61761;BME280;47664;51.660;-0.100;2022-10-19T07:52:46;101616.95;;;10.81;74.34
61761;BME280;47664;51.660;-0.100;2022-10-19T07:55:18;101624.72;;;11.12;73.61
61761;BME280;47664;51.660;-0.100;2022-10-19T07:57:51;101621.78;;;11.16;73.24
61761;BME280;47664;51.660;-0.100;2022-10-19T08:00:23;101625.14;;;10.87;75.08
61761;BME280;47664;51.660;-0.100;2022-10-19T08:02:55;101618.33;;;10.72;74.52
61761;BME280;47664;51.660;-0.100;2022-10-19T08:05:27;101617.52;;;10.86;74.25
61761;BME280;47664;51.660;-0.100;2022-10-19T08:07:59;101619.39;;;11.23;73.18
61761;BME280;47664;51.660;-0.100;2022-10-19T08:10:31;101616.25;;;11.57;71.88
61761;BME280;47664;51.660;-0.100;2022-10-19T08:13:03;101618.88;;;11.35;73.03
61761;BME280;47664;51.660;-0.100;2022-10-19T08:15:35;101630.32;;;11.38;73.41
61761;BME280;47664;51.660;-0.100;2022-10-19T08:18:07;101616.24;;;11.37;72.58
61761;BME280;47664;51.660;-0.100;2022-10-19T08:20:39;101610.70;;;11.32;72.69
61761;BME280;47664;51.660;-0.100;2022-10-19T08:23:12;101608.83;;;11.24;73.09
61761;BME280;47664;51.660;-0.100;2022-10-19T08:25:44;101609.36;;;11.46;73.56
61761;BME280;47664;51.660;-0.100;2022-10-19T08:28:16;101609.48;;;11.23;72.31
61761;BME280;47664;51.660;-0.100;2022-10-19T08:30:48;101622.75;;;11.30;72.58
61761;BME280;47664;51.660;-0.100;2022-10-19T08:33:20;101615.36;;;11.16;73.36
61761;BME280;47664;51.660;-0.100;2022-10-19T08:35:52;101608.09;;;11.35;71.44
61761;BME280;47664;51.660;-0.100;2022-10-19T08:38:25;101606.89;;;11.23;72.70
61761;BME280;47664;51.660;-0.100;2022-10-19T08:40:57;101600.62;;;11.26;72.47
61761;BME280;47664;51.660;-0.100;2022-10-19T08:43:35;101598.00;;;11.47;72.19
61761;BME280;47664;51.660;-0.100;2022-10-19T08:46:12;101594.13;;;11.72;71.57
61761;BME280;47664;51.660;-0.100;2022-10-19T08:48:47;101592.73;;;11.29;72.17
61761;BME280;47664;51.660;-0.100;2022-10-19T08:51:19;101591.29;;;11.43;72.30
61761;BME280;47664;51.660;-0.100;2022-10-19T08:53:52;101586.38;;;11.67;71.45
61761;BME280;47664;51.660;-0.100;2022-10-19T08:56:26;101573.19;;;11.54;71.39
61761;BME280;47664;51.660;-0.100;2022-10-19T08:59:04;101568.28;;;11.60;71.53
61761;BME280;47664;51.660;-0.100;2022-10-19T09:01:39;101574.48;;;11.54;70.76
61761;BME280;47664;51.660;-0.100;2022-10-19T09:04:17;101576.57;;;11.82;69.70
61761;BME280;47664;51.660;-0.100;2022-10-19T09:07:12;101579.44;;;11.85;69.93
61761;BME280;47664;51.660;-0.100;2022-10-19T09:09:50;101575.28;;;11.55;69.94
61761;BME280;47664;51.660;-0.100;2022-10-19T09:12:30;101567.33;;;12.00;69.40
61761;BME280;47664;51.660;-0.100;2022-10-19T09:15:06;101569.24;;;11.89;70.15
61761;BME280;47664;51.660;-0.100;2022-10-19T09:17:42;101564.73;;;11.64;70.73
61761;BME280;47664;51.660;-0.100;2022-10-19T09:20:15;101567.60;;;11.78;70.38
61761;BME280;47664;51.660;-0.100;2022-10-19T09:22:50;101564.83;;;11.50;70.08
61761;BME280;47664;51.660;-0.100;2022-10-19T09:25:27;101564.38;;;12.03;70.07
61761;BME280;47664;51.660;-0.100;2022-10-19T09:28:02;101564.25;;;11.90;69.69
61761;BME280;47664;51.660;-0.100;2022-10-19T09:30:36;101574.84;;;11.82;70.34
61761;BME280;47664;51.660;-0.100;2022-10-19T09:33:13;101563.69;;;11.81;70.52
61761;BME280;47664;51.660;-0.100;2022-10-19T09:35:48;101568.34;;;11.97;68.98
61761;BME280;47664;51.660;-0.100;2022-10-19T09:38:21;101566.99;;;12.29;68.93
61761;BME280;47664;51.660;-0.100;2022-10-19T09:40:55;101559.81;;;12.26;68.58
61761;BME280;47664;51.660;-0.100;2022-10-19T09:43:28;101557.94;;;12.68;67.45
61761;BME280;47664;51.660;-0.100;2022-10-19T09:46:04;101565.47;;;12.47;68.23
61761;BME280;47664;51.660;-0.100;2022-10-19T09:48:42;101566.81;;;13.00;67.08
61761;BME280;47664;51.660;-0.100;2022-10-19T09:51:19;101567.56;;;12.61;67.28
61761;BME280;47664;51.660;-0.100;2022-10-19T09:53:50;101563.26;;;12.49;66.92
61761;BME280;47664;51.660;-0.100;2022-10-19T09:56:24;101558.92;;;12.73;66.65
61761;BME280;47664;51.660;-0.100;2022-10-19T09:58:58;101555.95;;;12.21;67.44
61761;BME280;47664;51.660;-0.100;2022-10-19T10:01:30;101551.50;;;12.44;67.91
61761;BME280;47664;51.660;-0.100;2022-10-19T10:04:06;101544.79;;;12.56;67.26
61761;BME280;47664;51.660;-0.100;2022-10-19T10:06:41;101547.49;;;12.65;66.28
61761;BME280;47664;51.660;-0.100;2022-10-19T10:09:14;101545.90;;;12.53;66.42
61761;BME280;47664;51.660;-0.100;2022-10-19T10:11:48;101537.90;;;12.44;66.51
61761;BME280;47664;51.660;-0.100;2022-10-19T10:14:20;101538.76;;;13.14;65.82
61761;BME280;47664;51.660;-0.100;2022-10-19T10:16:54;101542.02;;;12.51;66.37
61761;BME280;47664;51.660;-0.100;2022-10-19T10:19:26;101533.28;;;12.52;66.79
61761;BME280;47664;51.660;-0.100;2022-10-19T10:22:02;101517.15;;;12.57;66.80
61761;BME280;47664;51.660;-0.100;2022-10-19T10:24:35;101524.65;;;12.33;66.42
61761;BME280;47664;51.660;-0.100;2022-10-19T10:27:10;101526.99;;;12.67;65.65
61761;BME280;47664;51.660;-0.100;2022-10-19T10:29:54;101518.49;;;12.18;66.63
61761;BME280;47664;51.660;-0.100;2022-10-19T10:32:27;101518.93;;;12.35;66.32
61761;BME280;47664;51.660;-0.100;2022-10-19T10:34:58;101514.13;;;12.67;64.81
61761;BME280;47664;51.660;-0.100;2022-10-19T10:37:34;101520.19;;;12.47;65.14
61761;BME280;47664;51.660;-0.100;2022-10-19T10:40:15;101522.88;;;12.89;64.95
61761;BME280;47664;51.660;-0.100;2022-10-19T10:42:52;101522.06;;;12.94;64.28
61761;BME280;47664;51.660;-0.100;2022-10-19T10:45:25;101522.32;;;13.64;63.21
61761;BME280;47664;51.660;-0.100;2022-10-19T10:48:05;101519.59;;;13.21;62.53
61761;BME280;47664;51.660;-0.100;2022-10-19T10:50:43;101520.27;;;12.98;63.83
61761;BME280;47664;51.660;-0.100;2022-10-19T10:53:31;101527.49;;;13.02;63.32
61761;BME280;47664;51.660;-0.100;2022-10-19T10:56:05;101523.98;;;13.62;62.18
61761;BME280;47664;51.660;-0.100;2022-10-19T10:58:38;101523.75;;;13.09;63.20
61761;BME280;47664;51.660;-0.100;2022-10-19T11:01:25;101519.95;;;13.05;62.72
61761;BME280;47664;51.660;-0.100;2022-10-19T11:04:02;101513.22;;;12.73;63.20
61761;BME280;47664;51.660;-0.100;2022-10-19T11:06:34;101515.13;;;12.91;63.50
61761;BME280;47664;51.660;-0.100;2022-10-19T11:09:07;101516.58;;;12.96;63.37
61761;BME280;47664;51.660;-0.100;2022-10-19T11:11:44;101511.98;;;13.18;63.34
61761;BME280;47664;51.660;-0.100;2022-10-19T11:14:25;101512.74;;;13.01;62.59
61761;BME280;47664;51.660;-0.100;2022-10-19T11:16:57;101509.18;;;13.50;62.03
61761;BME280;47664;51.660;-0.100;2022-10-19T11:19:34;101513.17;;;13.29;62.50
61761;BME280;47664;51.660;-0.100;2022-10-19T11:22:12;101497.98;;;13.07;61.70
61761;BME280;47664;51.660;-0.100;2022-10-19T11:24:58;101484.04;;;13.47;61.14
61761;BME280;47664;51.660;-0.100;2022-10-19T11:27:39;101474.93;;;13.13;61.38
61761;BME280;47664;51.660;-0.100;2022-10-19T11:30:18;101470.18;;;13.26;62.18
61761;BME280;47664;51.660;-0.100;2022-10-19T11:32:54;101447.17;;;12.98;62.46
61761;BME280;47664;51.660;-0.100;2022-10-19T11:35:34;101434.96;;;13.50;61.61
61761;BME280;47664;51.660;-0.100;2022-10-19T11:38:14;101427.20;;;13.13;62.57
61761;BME280;47664;51.660;-0.100;2022-10-19T11:40:50;101429.61;;;13.07;61.86
61761;BME280;47664;51.660;-0.100;2022-10-19T11:43:27;101426.61;;;13.68;60.97
61761;BME280;47664;51.660;-0.100;2022-10-19T11:46:04;101415.29;;;13.56;60.40
61761;BME280;47664;51.660;-0.100;2022-10-19T11:48:49;101414.21;;;13.62;61.11
61761;BME280;47664;51.660;-0.100;2022-10-19T11:51:26;101411.29;;;12.88;62.15
61761;BME280;47664;51.660;-0.100;2022-10-19T11:54:11;101398.31;;;12.99;62.88
61761;BME280;47664;51.660;-0.100;2022-10-19T11:56:47;101390.21;;;13.17;61.68
61761;BME280;47664;51.660;-0.100;2022-10-19T11:59:26;101390.72;;;13.70;60.70
61761;BME280;47664;51.660;-0.100;2022-10-19T12:02:04;101377.73;;;13.85;59.62
61761;BME280;47664;51.660;-0.100;2022-10-19T12:04:45;101378.17;;;13.53;60.18
61761;BME280;47664;51.660;-0.100;2022-10-19T12:07:29;101374.74;;;13.90;59.30
61761;BME280;47664;51.660;-0.100;2022-10-19T12:10:06;101369.62;;;14.33;58.38
61761;BME280;47664;51.660;-0.100;2022-10-19T12:12:40;101359.90;;;13.79;59.39
61761;BME280;47664;51.660;-0.100;2022-10-19T12:15:20;101354.40;;;13.97;59.51
61761;BME280;47664;51.660;-0.100;2022-10-19T12:17:57;101345.85;;;13.64;59.63
61761;BME280;47664;51.660;-0.100;2022-10-19T12:20:31;101339.30;;;13.30;61.00
61761;BME280;47664;51.660;-0.100;2022-10-19T12:23:16;101321.93;;;13.26;61.21
61761;BME280;47664;51.660;-0.100;2022-10-19T12:25:49;101309.85;;;13.18;60.57
61761;BME280;47664;51.660;-0.100;2022-10-19T12:28:21;101309.11;;;14.01;59.42
61761;BME280;47664;51.660;-0.100;2022-10-19T12:31:02;101310.97;;;13.55;60.64
61761;BME280;47664;51.660;-0.100;2022-10-19T12:33:41;101306.82;;;13.99;59.28
61761;BME280;47664;51.660;-0.100;2022-10-19T12:36:19;101314.27;;;13.93;59.73
61761;BME280;47664;51.660;-0.100;2022-10-19T12:38:55;101307.08;;;14.19;59.54
61761;BME280;47664;51.660;-0.100;2022-10-19T12:41:35;101298.74;;;14.49;58.69
61761;BME280;47664;51.660;-0.100;2022-10-19T12:44:21;101297.14;;;13.84;60.40
61761;BME280;47664;51.660;-0.100;2022-10-19T12:47:05;101300.46;;;13.97;59.43
61761;BME280;47664;51.660;-0.100;2022-10-19T12:49:44;101287.23;;;14.08;59.66
61761;BME280;47664;51.660;-0.100;2022-10-19T12:52:33;101273.03;;;14.05;59.53
61761;BME280;47664;51.660;-0.100;2022-10-19T12:55:11;101262.50;;;14.28;58.78
61761;BME280;47664;51.660;-0.100;2022-10-19T12:57:45;101247.51;;;14.09;58.94
61761;BME280;47664;51.660;-0.100;2022-10-19T13:00:19;101249.61;;;14.22;59.16
61761;BME280;47664;51.660;-0.100;2022-10-19T13:02:57;101248.78;;;14.12;58.71
61761;BME280;47664;51.660;-0.100;2022-10-19T13:05:32;101244.58;;;13.81;59.77
61761;BME280;47664;51.660;-0.100;2022-10-19T13:08:06;101239.54;;;13.75;59.70
61761;BME280;47664;51.660;-0.100;2022-10-19T13:10:39;101219.22;;;13.76;61.21
61761;BME280;47664;51.660;-0.100;2022-10-19T13:13:55;101212.09;;;14.45;58.86
61761;BME280;47664;51.660;-0.100;2022-10-19T13:16:57;101213.06;;;14.08;58.84
61761;BME280;47664;51.660;-0.100;2022-10-19T13:19:29;101218.41;;;14.26;59.04